sensor_id;sensor_type;location;lat;lon;timestamp;P1;durP1;ratioP1;P2;durP2;ratioP2
44704;SDS011;30431;48.520;9.046;2023-03-21T00:00:52;4.72;;;2.97;;
44704;SDS011;30431;48.520;9.046;2023-03-21T00:03:24;7.90;;;3.30;;
44704;SDS011;30431;48.520;9.046;2023-03-21T00:05:54;7.47;;;3.38;;
44704;SDS011;30431;48.520;9.046;2023-03-21T00:08:24;5.88;;;3.38;;
44704;SDS011;30431;48.520;9.046;2023-03-21T00:10:57;4.18;;;3.10;;
44704;SDS011;30431;48.520;9.046;2023-03-21T00:13:26;5.45;;;3.35;;
44704;SDS011;30431;48.520;9.046;2023-03-21T00:16:08;8.07;;;3.58;;
44704;SDS011;30431;48.520;9.046;2023-03-21T00:18:53;7.20;;;3.30;;
44704;SDS011;30431;48.520;9.046;2023-03-21T00:21:23;4.28;;;2.92;;
44704;SDS011;30431;48.520;9.046;2023-03-21T00:24:13;5.03;;;3.30;;
44704;SDS011;30431;48.520;9.046;2023-03-21T00:29:10;4.72;;;3.20;;
44704;SDS011;30431;48.520;9.046;2023-03-21T00:31:39;8.38;;;3.97;;
44704;SDS011;30431;48.520;9.046;2023-03-21T00:34:10;6.07;;;3.25;;
44704;SDS011;30431;48.520;9.046;2023-03-21T00:36:38;5.97;;;3.33;;
44704;SDS011;30431;48.520;9.046;2023-03-21T00:39:08;8.05;;;3.80;;
44704;SDS011;30431;48.520;9.046;2023-03-21T00:41:35;5.32;;;3.53;;
44704;SDS011;30431;48.520;9.046;2023-03-21T00:44:09;7.95;;;3.63;;
44704;SDS011;30431;48.520;9.046;2023-03-21T00:46:41;6.22;;;3.50;;
44704;SDS011;30431;48.520;9.046;2023-03-21T00:49:25;5.32;;;3.30;;
44704;SDS011;30431;48.520;9.046;2023-03-21T00:51:53;5.18;;;3.38;;
44704;SDS011;30431;48.520;9.046;2023-03-21T00:54:22;4.97;;;3.60;;
44704;SDS011;30431;48.520;9.046;2023-03-21T00:56:49;5.85;;;3.25;;
44704;SDS011;30431;48.520;9.046;2023-03-21T00:59:16;5.60;;;3.40;;
44704;SDS011;30431;48.520;9.046;2023-03-21T01:01:45;6.50;;;3.50;;
44704;SDS011;30431;48.520;9.046;2023-03-21T01:04:15;4.95;;;3.25;;
44704;SDS011;30431;48.520;9.046;2023-03-21T01:06:42;5.30;;;3.63;;
44704;SDS011;30431;48.520;9.046;2023-03-21T01:09:13;4.75;;;3.22;;
44704;SDS011;30431;48.520;9.046;2023-03-21T01:11:49;5.38;;;3.70;;
44704;SDS011;30431;48.520;9.046;2023-03-21T01:14:21;7.63;;;3.50;;
44704;SDS011;30431;48.520;9.046;2023-03-21T01:16:52;6.03;;;3.92;;
44704;SDS011;30431;48.520;9.046;2023-03-21T01:19:21;5.40;;;4.10;;
44704;SDS011;30431;48.520;9.046;2023-03-21T01:22:06;7.43;;;4.28;;
44704;SDS011;30431;48.520;9.046;2023-03-21T01:24:36;8.75;;;4.30;;
44704;SDS011;30431;48.520;9.046;2023-03-21T01:27:18;6.70;;;3.83;;
44704;SDS011;30431;48.520;9.046;2023-03-21T01:29:48;5.30;;;3.80;;
44704;SDS011;30431;48.520;9.046;2023-03-21T01:32:17;5.32;;;3.95;;
44704;SDS011;30431;48.520;9.046;2023-03-21T01:34:44;7.63;;;4.30;;
44704;SDS011;30431;48.520;9.046;2023-03-21T01:37:11;6.60;;;3.72;;
44704;SDS011;30431;48.520;9.046;2023-03-21T01:39:44;5.53;;;3.60;;
44704;SDS011;30431;48.520;9.046;2023-03-21T01:42:12;6.38;;;3.95;;
44704;SDS011;30431;48.520;9.046;2023-03-21T01:44:51;6.53;;;3.72;;
44704;SDS011;30431;48.520;9.046;2023-03-21T01:47:23;9.60;;;4.07;;
44704;SDS011;30431;48.520;9.046;2023-03-21T01:50:14;7.45;;;4.05;;
44704;SDS011;30431;48.520;9.046;2023-03-21T01:53:04;5.47;;;3.80;;
44704;SDS011;30431;48.520;9.046;2023-03-21T01:55:33;5.07;;;3.40;;
44704;SDS011;30431;48.520;9.046;2023-03-21T01:58:19;9.25;;;4.07;;
44704;SDS011;30431;48.520;9.046;2023-03-21T02:01:03;5.97;;;3.47;;
44704;SDS011;30431;48.520;9.046;2023-03-21T02:03:47;5.40;;;3.40;;
44704;SDS011;30431;48.520;9.046;2023-03-21T02:06:34;5.35;;;3.45;;
44704;SDS011;30431;48.520;9.046;2023-03-21T02:09:23;5.78;;;3.30;;
44704;SDS011;30431;48.520;9.046;2023-03-21T02:11:54;6.30;;;3.45;;
44704;SDS011;30431;48.520;9.046;2023-03-21T02:14:26;6.72;;;3.90;;
44704;SDS011;30431;48.520;9.046;2023-03-21T02:28:34;5.60;;;3.90;;
44704;SDS011;30431;48.520;9.046;2023-03-21T02:31:35;7.50;;;4.22;;
44704;SDS011;30431;48.520;9.046;2023-03-21T02:48:35;5.03;;;3.50;;
44704;SDS011;30431;48.520;9.046;2023-03-21T02:51:17;5.68;;;3.47;;
44704;SDS011;30431;48.520;9.046;2023-03-21T02:53:53;5.95;;;3.90;;
44704;SDS011;30431;48.520;9.046;2023-03-21T02:56:48;5.18;;;3.65;;
44704;SDS011;30431;48.520;9.046;2023-03-21T02:59:20;6.35;;;3.92;;
44704;SDS011;30431;48.520;9.046;2023-03-21T03:01:53;5.68;;;3.45;;
44704;SDS011;30431;48.520;9.046;2023-03-21T03:04:26;6.05;;;3.63;;
44704;SDS011;30431;48.520;9.046;2023-03-21T03:18:40;6.47;;;4.07;;
44704;SDS011;30431;48.520;9.046;2023-03-21T03:21:21;6.05;;;4.30;;
44704;SDS011;30431;48.520;9.046;2023-03-21T03:24:05;6.18;;;3.80;;
44704;SDS011;30431;48.520;9.046;2023-03-21T03:26:43;9.73;;;4.80;;
44704;SDS011;30431;48.520;9.046;2023-03-21T03:29:13;6.88;;;4.00;;
44704;SDS011;30431;48.520;9.046;2023-03-21T03:31:47;6.50;;;3.90;;
44704;SDS011;30431;48.520;9.046;2023-03-21T03:34:23;5.18;;;3.75;;
44704;SDS011;30431;48.520;9.046;2023-03-21T03:36:55;6.63;;;4.18;;
44704;SDS011;30431;48.520;9.046;2023-03-21T03:39:34;6.22;;;4.00;;
44704;SDS011;30431;48.520;9.046;2023-03-21T03:42:12;5.85;;;3.65;;
44704;SDS011;30431;48.520;9.046;2023-03-21T03:45:05;4.97;;;3.90;;
44704;SDS011;30431;48.520;9.046;2023-03-21T03:50:26;6.05;;;3.90;;
44704;SDS011;30431;48.520;9.046;2023-03-21T03:53:00;5.85;;;3.97;;
44704;SDS011;30431;48.520;9.046;2023-03-21T03:55:48;7.57;;;4.28;;
44704;SDS011;30431;48.520;9.046;2023-03-21T03:58:26;5.88;;;3.95;;
44704;SDS011;30431;48.520;9.046;2023-03-21T04:01:13;7.20;;;3.72;;
44704;SDS011;30431;48.520;9.046;2023-03-21T04:03:40;6.55;;;4.05;;
44704;SDS011;30431;48.520;9.046;2023-03-21T04:06:20;6.60;;;4.22;;
44704;SDS011;30431;48.520;9.046;2023-03-21T04:08:50;6.38;;;3.97;;
44704;SDS011;30431;48.520;9.046;2023-03-21T04:11:19;6.53;;;4.13;;
44704;SDS011;30431;48.520;9.046;2023-03-21T04:13:51;7.55;;;4.78;;
44704;SDS011;30431;48.520;9.046;2023-03-21T04:16:22;8.23;;;4.43;;
44704;SDS011;30431;48.520;9.046;2023-03-21T04:18:56;9.02;;;4.80;;
44704;SDS011;30431;48.520;9.046;2023-03-21T04:21:32;7.15;;;4.82;;
44704;SDS011;30431;48.520;9.046;2023-03-21T04:23:59;8.20;;;4.82;;
44704;SDS011;30431;48.520;9.046;2023-03-21T04:29:29;7.05;;;5.10;;
44704;SDS011;30431;48.520;9.046;2023-03-21T04:32:28;7.38;;;4.68;;
44704;SDS011;30431;48.520;9.046;2023-03-21T04:35:06;8.02;;;4.90;;
44704;SDS011;30431;48.520;9.046;2023-03-21T04:37:37;8.52;;;4.68;;
44704;SDS011;30431;48.520;9.046;2023-03-21T04:40:07;6.82;;;4.57;;
44704;SDS011;30431;48.520;9.046;2023-03-21T04:42:37;6.97;;;4.53;;
44704;SDS011;30431;48.520;9.046;2023-03-21T04:45:09;9.38;;;5.65;;
44704;SDS011;30431;48.520;9.046;2023-03-21T04:47:40;11.43;;;7.05;;
44704;SDS011;30431;48.520;9.046;2023-03-21T04:50:10;10.57;;;6.28;;
44704;SDS011;30431;48.520;9.046;2023-03-21T04:52:39;11.18;;;5.85;;
44704;SDS011;30431;48.520;9.046;2023-03-21T04:55:06;12.77;;;7.10;;
44704;SDS011;30431;48.520;9.046;2023-03-21T04:57:37;15.52;;;9.00;;
44704;SDS011;30431;48.520;9.046;2023-03-21T05:00:05;14.95;;;8.15;;
44704;SDS011;30431;48.520;9.046;2023-03-21T05:02:37;22.60;;;14.15;;
44704;SDS011;30431;48.520;9.046;2023-03-21T05:05:04;26.63;;;16.17;;
44704;SDS011;30431;48.520;9.046;2023-03-21T05:07:34;12.20;;;7.70;;
44704;SDS011;30431;48.520;9.046;2023-03-21T05:10:02;8.52;;;6.03;;
44704;SDS011;30431;48.520;9.046;2023-03-21T05:12:32;7.82;;;4.63;;
44704;SDS011;30431;48.520;9.046;2023-03-21T05:15:02;16.27;;;8.40;;
44704;SDS011;30431;48.520;9.046;2023-03-21T05:17:32;10.52;;;6.70;;
44704;SDS011;30431;48.520;9.046;2023-03-21T05:19:59;10.00;;;5.30;;
44704;SDS011;30431;48.520;9.046;2023-03-21T05:22:26;11.52;;;5.43;;
44704;SDS011;30431;48.520;9.046;2023-03-21T05:24:55;15.88;;;8.07;;
44704;SDS011;30431;48.520;9.046;2023-03-21T05:27:41;20.95;;;10.07;;
44704;SDS011;30431;48.520;9.046;2023-03-21T05:30:14;23.08;;;10.63;;
44704;SDS011;30431;48.520;9.046;2023-03-21T05:32:45;16.05;;;7.20;;
44704;SDS011;30431;48.520;9.046;2023-03-21T05:35:12;16.98;;;9.60;;
44704;SDS011;30431;48.520;9.046;2023-03-21T05:37:45;12.73;;;6.43;;
44704;SDS011;30431;48.520;9.046;2023-03-21T05:40:12;13.05;;;6.63;;
44704;SDS011;30431;48.520;9.046;2023-03-21T05:42:42;13.18;;;6.32;;
44704;SDS011;30431;48.520;9.046;2023-03-21T05:45:21;10.73;;;5.90;;
44704;SDS011;30431;48.520;9.046;2023-03-21T05:47:52;19.50;;;8.88;;
44704;SDS011;30431;48.520;9.046;2023-03-21T05:50:22;14.90;;;7.60;;
44704;SDS011;30431;48.520;9.046;2023-03-21T05:53:03;32.65;;;13.25;;
44704;SDS011;30431;48.520;9.046;2023-03-21T06:00:29;33.95;;;14.80;;
44704;SDS011;30431;48.520;9.046;2023-03-21T06:03:12;20.92;;;10.98;;
44704;SDS011;30431;48.520;9.046;2023-03-21T06:05:54;25.00;;;10.13;;
44704;SDS011;30431;48.520;9.046;2023-03-21T06:08:27;15.43;;;7.50;;
44704;SDS011;30431;48.520;9.046;2023-03-21T06:10:58;11.38;;;5.30;;
44704;SDS011;30431;48.520;9.046;2023-03-21T06:13:30;21.90;;;9.38;;
44704;SDS011;30431;48.520;9.046;2023-03-21T06:15:58;21.85;;;8.93;;
44704;SDS011;30431;48.520;9.046;2023-03-21T06:18:27;38.70;;;16.73;;
44704;SDS011;30431;48.520;9.046;2023-03-21T06:21:03;19.10;;;9.70;;
44704;SDS011;30431;48.520;9.046;2023-03-21T06:23:31;37.03;;;16.95;;
44704;SDS011;30431;48.520;9.046;2023-03-21T06:25:58;24.52;;;10.38;;
44704;SDS011;30431;48.520;9.046;2023-03-21T06:28:28;19.83;;;10.68;;
44704;SDS011;30431;48.520;9.046;2023-03-21T06:30:57;10.85;;;5.25;;
44704;SDS011;30431;48.520;9.046;2023-03-21T06:33:26;12.23;;;5.35;;
44704;SDS011;30431;48.520;9.046;2023-03-21T06:35:54;10.27;;;5.03;;
44704;SDS011;30431;48.520;9.046;2023-03-21T06:38:23;14.02;;;6.72;;
44704;SDS011;30431;48.520;9.046;2023-03-21T06:40:51;16.20;;;7.10;;
44704;SDS011;30431;48.520;9.046;2023-03-21T06:43:22;34.47;;;15.25;;
44704;SDS011;30431;48.520;9.046;2023-03-21T06:45:52;26.95;;;12.98;;
44704;SDS011;30431;48.520;9.046;2023-03-21T06:48:19;14.32;;;7.35;;
44704;SDS011;30431;48.520;9.046;2023-03-21T06:50:48;11.95;;;5.70;;
44704;SDS011;30431;48.520;9.046;2023-03-21T06:53:21;9.10;;;5.15;;
44704;SDS011;30431;48.520;9.046;2023-03-21T06:56:13;6.32;;;4.57;;
44704;SDS011;30431;48.520;9.046;2023-03-21T06:58:44;14.15;;;5.72;;
44704;SDS011;30431;48.520;9.046;2023-03-21T07:01:36;9.32;;;4.72;;
44704;SDS011;30431;48.520;9.046;2023-03-21T07:04:06;6.57;;;5.22;;
44704;SDS011;30431;48.520;9.046;2023-03-21T07:09:04;15.77;;;6.28;;
44704;SDS011;30431;48.520;9.046;2023-03-21T07:11:34;7.25;;;5.40;;
44704;SDS011;30431;48.520;9.046;2023-03-21T07:14:03;11.73;;;5.75;;
44704;SDS011;30431;48.520;9.046;2023-03-21T07:16:30;10.45;;;5.65;;
44704;SDS011;30431;48.520;9.046;2023-03-21T07:18:57;8.15;;;4.88;;
44704;SDS011;30431;48.520;9.046;2023-03-21T07:21:27;8.88;;;4.30;;
44704;SDS011;30431;48.520;9.046;2023-03-21T07:23:53;6.93;;;4.40;;
44704;SDS011;30431;48.520;9.046;2023-03-21T07:26:20;10.07;;;5.22;;
44704;SDS011;30431;48.520;9.046;2023-03-21T07:28:48;10.20;;;5.15;;
44704;SDS011;30431;48.520;9.046;2023-03-21T07:31:15;9.27;;;4.00;;
44704;SDS011;30431;48.520;9.046;2023-03-21T07:33:42;6.47;;;4.30;;
44704;SDS011;30431;48.520;9.046;2023-03-21T07:36:16;7.75;;;3.85;;
44704;SDS011;30431;48.520;9.046;2023-03-21T07:38:44;6.50;;;4.18;;
44704;SDS011;30431;48.520;9.046;2023-03-21T07:41:11;9.55;;;3.80;;
44704;SDS011;30431;48.520;9.046;2023-03-21T07:43:42;14.90;;;7.25;;
44704;SDS011;30431;48.520;9.046;2023-03-21T07:46:13;13.88;;;7.28;;
44704;SDS011;30431;48.520;9.046;2023-03-21T07:48:40;9.90;;;4.28;;
44704;SDS011;30431;48.520;9.046;2023-03-21T07:51:07;7.65;;;3.92;;
44704;SDS011;30431;48.520;9.046;2023-03-21T07:53:37;13.07;;;4.70;;
44704;SDS011;30431;48.520;9.046;2023-03-21T07:56:07;10.20;;;4.22;;
44704;SDS011;30431;48.520;9.046;2023-03-21T08:01:01;8.30;;;3.83;;
44704;SDS011;30431;48.520;9.046;2023-03-21T08:03:28;9.57;;;4.00;;
44704;SDS011;30431;48.520;9.046;2023-03-21T08:05:57;11.52;;;4.68;;
44704;SDS011;30431;48.520;9.046;2023-03-21T08:08:24;9.30;;;4.20;;
44704;SDS011;30431;48.520;9.046;2023-03-21T08:10:53;7.10;;;3.65;;
44704;SDS011;30431;48.520;9.046;2023-03-21T08:13:20;9.20;;;3.70;;
44704;SDS011;30431;48.520;9.046;2023-03-21T08:15:48;8.88;;;4.63;;
44704;SDS011;30431;48.520;9.046;2023-03-21T08:18:17;9.32;;;4.40;;
44704;SDS011;30431;48.520;9.046;2023-03-21T08:20:46;5.70;;;3.75;;
44704;SDS011;30431;48.520;9.046;2023-03-21T08:23:22;5.38;;;3.78;;
44704;SDS011;30431;48.520;9.046;2023-03-21T08:25:54;8.02;;;3.95;;
44704;SDS011;30431;48.520;9.046;2023-03-21T08:28:22;6.07;;;3.85;;
44704;SDS011;30431;48.520;9.046;2023-03-21T08:30:56;5.47;;;3.70;;
44704;SDS011;30431;48.520;9.046;2023-03-21T08:33:23;5.32;;;3.83;;
44704;SDS011;30431;48.520;9.046;2023-03-21T08:35:50;10.95;;;4.47;;
44704;SDS011;30431;48.520;9.046;2023-03-21T08:38:17;7.97;;;4.78;;
44704;SDS011;30431;48.520;9.046;2023-03-21T08:40:46;8.27;;;4.53;;
44704;SDS011;30431;48.520;9.046;2023-03-21T08:43:13;8.95;;;4.18;;
44704;SDS011;30431;48.520;9.046;2023-03-21T08:45:43;7.82;;;4.78;;
44704;SDS011;30431;48.520;9.046;2023-03-21T08:48:09;8.50;;;3.97;;
44704;SDS011;30431;48.520;9.046;2023-03-21T08:50:36;8.90;;;3.60;;
44704;SDS011;30431;48.520;9.046;2023-03-21T08:53:06;6.88;;;3.45;;
44704;SDS011;30431;48.520;9.046;2023-03-21T08:55:33;5.90;;;3.80;;
44704;SDS011;30431;48.520;9.046;2023-03-21T08:58:03;5.53;;;3.90;;
44704;SDS011;30431;48.520;9.046;2023-03-21T09:02:59;6.30;;;3.72;;
44704;SDS011;30431;48.520;9.046;2023-03-21T09:05:30;6.80;;;4.00;;
44704;SDS011;30431;48.520;9.046;2023-03-21T09:07:57;5.68;;;3.50;;
44704;SDS011;30431;48.520;9.046;2023-03-21T09:10:26;7.93;;;3.90;;
44704;SDS011;30431;48.520;9.046;2023-03-21T09:12:53;7.35;;;3.50;;
44704;SDS011;30431;48.520;9.046;2023-03-21T09:17:50;4.40;;;2.85;;
44704;SDS011;30431;48.520;9.046;2023-03-21T09:20:24;4.32;;;2.90;;
44704;SDS011;30431;48.520;9.046;2023-03-21T09:22:59;4.10;;;2.90;;
44704;SDS011;30431;48.520;9.046;2023-03-21T09:25:27;6.43;;;3.20;;
44704;SDS011;30431;48.520;9.046;2023-03-21T09:27:57;7.32;;;3.72;;
44704;SDS011;30431;48.520;9.046;2023-03-21T09:30:25;5.15;;;2.75;;
44704;SDS011;30431;48.520;9.046;2023-03-21T09:33:00;5.40;;;3.20;;
44704;SDS011;30431;48.520;9.046;2023-03-21T09:35:31;4.43;;;3.22;;
44704;SDS011;30431;48.520;9.046;2023-03-21T09:37:59;5.18;;;2.97;;
44704;SDS011;30431;48.520;9.046;2023-03-21T09:46:51;4.20;;;3.10;;
44704;SDS011;30431;48.520;9.046;2023-03-21T09:49:24;5.10;;;3.33;;
44704;SDS011;30431;48.520;9.046;2023-03-21T09:52:00;5.43;;;3.38;;
44704;SDS011;30431;48.520;9.046;2023-03-21T09:54:35;6.70;;;3.42;;
44704;SDS011;30431;48.520;9.046;2023-03-21T09:59:52;4.25;;;3.00;;
44704;SDS011;30431;48.520;9.046;2023-03-21T10:02:31;6.00;;;3.35;;
44704;SDS011;30431;48.520;9.046;2023-03-21T10:05:18;5.30;;;3.38;;
44704;SDS011;30431;48.520;9.046;2023-03-21T10:07:55;6.13;;;3.63;;
44704;SDS011;30431;48.520;9.046;2023-03-21T10:10:35;6.25;;;3.38;;
44704;SDS011;30431;48.520;9.046;2023-03-21T10:13:13;6.25;;;3.33;;
44704;SDS011;30431;48.520;9.046;2023-03-21T10:15:44;4.60;;;2.85;;
44704;SDS011;30431;48.520;9.046;2023-03-21T10:18:18;7.57;;;3.53;;
44704;SDS011;30431;48.520;9.046;2023-03-21T10:20:50;5.22;;;3.03;;
44704;SDS011;30431;48.520;9.046;2023-03-21T10:23:21;4.10;;;3.00;;
44704;SDS011;30431;48.520;9.046;2023-03-21T10:25:52;6.25;;;3.30;;
44704;SDS011;30431;48.520;9.046;2023-03-21T10:28:31;5.25;;;3.45;;
44704;SDS011;30431;48.520;9.046;2023-03-21T10:31:18;4.68;;;3.00;;
44704;SDS011;30431;48.520;9.046;2023-03-21T10:33:53;6.53;;;3.67;;
44704;SDS011;30431;48.520;9.046;2023-03-21T10:36:26;4.50;;;3.25;;
44704;SDS011;30431;48.520;9.046;2023-03-21T10:38:58;5.75;;;3.10;;
44704;SDS011;30431;48.520;9.046;2023-03-21T10:41:28;4.53;;;2.90;;
44704;SDS011;30431;48.520;9.046;2023-03-21T10:44:04;5.07;;;3.10;;
44704;SDS011;30431;48.520;9.046;2023-03-21T10:46:37;8.10;;;3.58;;
44704;SDS011;30431;48.520;9.046;2023-03-21T10:49:05;4.63;;;2.92;;
44704;SDS011;30431;48.520;9.046;2023-03-21T10:51:34;3.92;;;2.90;;
44704;SDS011;30431;48.520;9.046;2023-03-21T10:54:04;6.90;;;3.53;;
44704;SDS011;30431;48.520;9.046;2023-03-21T10:56:52;3.83;;;2.97;;
44704;SDS011;30431;48.520;9.046;2023-03-21T10:59:50;6.80;;;3.00;;
44704;SDS011;30431;48.520;9.046;2023-03-21T11:02:23;7.88;;;3.30;;
44704;SDS011;30431;48.520;9.046;2023-03-21T11:04:53;3.85;;;3.20;;
44704;SDS011;30431;48.520;9.046;2023-03-21T11:07:21;5.38;;;3.47;;
44704;SDS011;30431;48.520;9.046;2023-03-21T11:09:56;8.35;;;3.15;;
44704;SDS011;30431;48.520;9.046;2023-03-21T11:12:30;5.60;;;3.00;;
44704;SDS011;30431;48.520;9.046;2023-03-21T11:17:53;4.25;;;3.15;;
44704;SDS011;30431;48.520;9.046;2023-03-21T11:20:23;5.30;;;3.05;;
44704;SDS011;30431;48.520;9.046;2023-03-21T11:27:51;4.70;;;3.00;;
44704;SDS011;30431;48.520;9.046;2023-03-21T11:30:23;3.40;;;2.53;;
44704;SDS011;30431;48.520;9.046;2023-03-21T11:32:56;4.32;;;2.90;;
44704;SDS011;30431;48.520;9.046;2023-03-21T11:35:31;6.20;;;3.15;;
44704;SDS011;30431;48.520;9.046;2023-03-21T11:38:22;3.97;;;2.65;;
44704;SDS011;30431;48.520;9.046;2023-03-21T11:41:00;3.70;;;3.05;;
44704;SDS011;30431;48.520;9.046;2023-03-21T11:43:34;3.83;;;2.70;;
44704;SDS011;30431;48.520;9.046;2023-03-21T11:48:41;5.80;;;3.08;;
44704;SDS011;30431;48.520;9.046;2023-03-21T11:56:32;9.70;;;3.33;;
44704;SDS011;30431;48.520;9.046;2023-03-21T12:07:49;4.10;;;2.72;;
44704;SDS011;30431;48.520;9.046;2023-03-21T12:25:09;4.25;;;2.60;;
44704;SDS011;30431;48.520;9.046;2023-03-21T12:31:09;5.60;;;2.63;;
44704;SDS011;30431;48.520;9.046;2023-03-21T12:34:08;3.30;;;2.20;;
44704;SDS011;30431;48.520;9.046;2023-03-21T12:37:30;3.40;;;2.42;;
44704;SDS011;30431;48.520;9.046;2023-03-21T12:39:45;4.95;;;2.20;;
44704;SDS011;30431;48.520;9.046;2023-03-21T12:45:30;6.70;;;2.60;;
44704;SDS011;30431;48.520;9.046;2023-03-21T12:48:12;5.72;;;2.28;;
44704;SDS011;30431;48.520;9.046;2023-03-21T12:50:45;3.20;;;2.35;;
44704;SDS011;30431;48.520;9.046;2023-03-21T12:55:55;2.95;;;2.20;;
44704;SDS011;30431;48.520;9.046;2023-03-21T12:58:27;4.55;;;2.17;;
44704;SDS011;30431;48.520;9.046;2023-03-21T13:01:01;3.60;;;2.30;;
44704;SDS011;30431;48.520;9.046;2023-03-21T13:03:36;3.75;;;2.35;;
44704;SDS011;30431;48.520;9.046;2023-03-21T13:06:12;4.32;;;2.45;;
44704;SDS011;30431;48.520;9.046;2023-03-21T13:08:47;3.63;;;2.00;;
44704;SDS011;30431;48.520;9.046;2023-03-21T13:11:40;3.90;;;2.28;;
44704;SDS011;30431;48.520;9.046;2023-03-21T13:14:23;4.00;;;1.85;;
44704;SDS011;30431;48.520;9.046;2023-03-21T13:17:00;2.80;;;2.10;;
44704;SDS011;30431;48.520;9.046;2023-03-21T13:19:55;4.25;;;2.50;;
44704;SDS011;30431;48.520;9.046;2023-03-21T13:22:31;4.13;;;2.40;;
44704;SDS011;30431;48.520;9.046;2023-03-21T13:25:03;5.35;;;2.42;;
44704;SDS011;30431;48.520;9.046;2023-03-21T13:27:33;6.57;;;2.03;;
44704;SDS011;30431;48.520;9.046;2023-03-21T13:30:06;3.55;;;2.20;;
44704;SDS011;30431;48.520;9.046;2023-03-21T13:32:48;3.17;;;2.10;;
44704;SDS011;30431;48.520;9.046;2023-03-21T13:35:21;3.80;;;1.90;;
44704;SDS011;30431;48.520;9.046;2023-03-21T13:38:02;6.95;;;4.80;;
44704;SDS011;30431;48.520;9.046;2023-03-21T13:40:36;4.82;;;2.53;;
44704;SDS011;30431;48.520;9.046;2023-03-21T13:46:07;4.80;;;1.90;;
44704;SDS011;30431;48.520;9.046;2023-03-21T13:53:58;2.85;;;1.70;;
44704;SDS011;30431;48.520;9.046;2023-03-21T13:56:27;3.08;;;2.15;;
44704;SDS011;30431;48.520;9.046;2023-03-21T13:59:00;2.08;;;1.70;;
44704;SDS011;30431;48.520;9.046;2023-03-21T14:06:43;6.63;;;2.78;;
44704;SDS011;30431;48.520;9.046;2023-03-21T14:09:17;3.35;;;1.65;;
44704;SDS011;30431;48.520;9.046;2023-03-21T14:11:55;1.90;;;1.63;;
44704;SDS011;30431;48.520;9.046;2023-03-21T14:14:38;4.07;;;1.88;;
44704;SDS011;30431;48.520;9.046;2023-03-21T14:17:14;1.60;;;1.40;;
44704;SDS011;30431;48.520;9.046;2023-03-21T14:19:52;3.83;;;1.80;;
44704;SDS011;30431;48.520;9.046;2023-03-21T14:22:22;2.80;;;1.75;;
44704;SDS011;30431;48.520;9.046;2023-03-21T14:24:57;2.00;;;1.50;;
44704;SDS011;30431;48.520;9.046;2023-03-21T14:27:32;3.47;;;1.60;;
44704;SDS011;30431;48.520;9.046;2023-03-21T14:30:00;3.33;;;1.60;;
44704;SDS011;30431;48.520;9.046;2023-03-21T14:32:30;1.63;;;1.35;;
44704;SDS011;30431;48.520;9.046;2023-03-21T14:34:58;2.15;;;1.75;;
44704;SDS011;30431;48.520;9.046;2023-03-21T14:37:31;5.32;;;1.83;;
44704;SDS011;30431;48.520;9.046;2023-03-21T14:40:16;3.15;;;1.65;;
44704;SDS011;30431;48.520;9.046;2023-03-21T14:42:47;1.77;;;1.40;;
44704;SDS011;30431;48.520;9.046;2023-03-21T14:48:05;4.95;;;1.60;;
44704;SDS011;30431;48.520;9.046;2023-03-21T14:51:00;1.77;;;1.60;;
44704;SDS011;30431;48.520;9.046;2023-03-21T14:53:31;1.95;;;1.60;;
44704;SDS011;30431;48.520;9.046;2023-03-21T14:58:52;3.70;;;1.90;;
44704;SDS011;30431;48.520;9.046;2023-03-21T15:01:29;2.85;;;1.85;;
44704;SDS011;30431;48.520;9.046;2023-03-21T15:04:00;2.08;;;1.50;;
44704;SDS011;30431;48.520;9.046;2023-03-21T15:06:31;1.90;;;1.42;;
44704;SDS011;30431;48.520;9.046;2023-03-21T15:14:08;4.90;;;2.47;;
44704;SDS011;30431;48.520;9.046;2023-03-21T15:16:39;2.38;;;1.77;;
44704;SDS011;30431;48.520;9.046;2023-03-21T15:19:13;6.28;;;1.73;;
44704;SDS011;30431;48.520;9.046;2023-03-21T15:21:50;4.80;;;2.17;;
44704;SDS011;30431;48.520;9.046;2023-03-21T15:24:29;3.35;;;2.28;;
44704;SDS011;30431;48.520;9.046;2023-03-21T15:27:04;6.55;;;2.28;;
44704;SDS011;30431;48.520;9.046;2023-03-21T15:29:42;4.32;;;1.70;;
44704;SDS011;30431;48.520;9.046;2023-03-21T15:32:18;2.47;;;1.50;;
44704;SDS011;30431;48.520;9.046;2023-03-21T15:34:51;2.80;;;1.58;;
44704;SDS011;30431;48.520;9.046;2023-03-21T15:37:25;2.40;;;1.67;;
44704;SDS011;30431;48.520;9.046;2023-03-21T15:39:53;5.20;;;2.17;;
44704;SDS011;30431;48.520;9.046;2023-03-21T15:42:37;5.18;;;2.42;;
44704;SDS011;30431;48.520;9.046;2023-03-21T15:45:19;1.73;;;1.63;;
44704;SDS011;30431;48.520;9.046;2023-03-21T15:47:58;6.85;;;2.20;;
44704;SDS011;30431;48.520;9.046;2023-03-21T15:53:08;5.22;;;2.80;;
44704;SDS011;30431;48.520;9.046;2023-03-21T15:55:45;9.20;;;2.58;;
44704;SDS011;30431;48.520;9.046;2023-03-21T15:58:17;5.32;;;2.30;;
44704;SDS011;30431;48.520;9.046;2023-03-21T16:00:52;3.85;;;2.00;;
44704;SDS011;30431;48.520;9.046;2023-03-21T16:03:25;5.40;;;3.17;;
44704;SDS011;30431;48.520;9.046;2023-03-21T16:08:44;6.57;;;2.60;;
44704;SDS011;30431;48.520;9.046;2023-03-21T16:11:18;2.63;;;1.70;;
44704;SDS011;30431;48.520;9.046;2023-03-21T16:13:49;1.60;;;1.50;;
44704;SDS011;30431;48.520;9.046;2023-03-21T16:16:19;4.50;;;1.95;;
44704;SDS011;30431;48.520;9.046;2023-03-21T16:18:52;3.47;;;2.00;;
44704;SDS011;30431;48.520;9.046;2023-03-21T16:21:22;4.65;;;2.20;;
44704;SDS011;30431;48.520;9.046;2023-03-21T16:23:52;2.40;;;1.92;;
44704;SDS011;30431;48.520;9.046;2023-03-21T16:26:20;1.70;;;1.50;;
44704;SDS011;30431;48.520;9.046;2023-03-21T16:28:53;3.10;;;1.70;;
44704;SDS011;30431;48.520;9.046;2023-03-21T16:31:22;3.65;;;2.10;;
44704;SDS011;30431;48.520;9.046;2023-03-21T16:33:57;6.72;;;2.67;;
44704;SDS011;30431;48.520;9.046;2023-03-21T16:36:28;2.28;;;1.90;;
44704;SDS011;30431;48.520;9.046;2023-03-21T16:38:59;3.08;;;1.95;;
44704;SDS011;30431;48.520;9.046;2023-03-21T16:41:26;2.58;;;2.00;;
44704;SDS011;30431;48.520;9.046;2023-03-21T16:46:23;4.43;;;1.85;;
44704;SDS011;30431;48.520;9.046;2023-03-21T16:48:56;1.95;;;1.60;;
44704;SDS011;30431;48.520;9.046;2023-03-21T16:51:25;3.33;;;1.83;;
44704;SDS011;30431;48.520;9.046;2023-03-21T16:54:02;2.30;;;1.77;;
44704;SDS011;30431;48.520;9.046;2023-03-21T16:56:33;2.47;;;1.80;;
44704;SDS011;30431;48.520;9.046;2023-03-21T16:59:03;3.15;;;1.70;;
44704;SDS011;30431;48.520;9.046;2023-03-21T17:01:34;6.85;;;1.70;;
44704;SDS011;30431;48.520;9.046;2023-03-21T17:04:03;4.25;;;2.15;;
44704;SDS011;30431;48.520;9.046;2023-03-21T17:06:36;3.13;;;2.00;;
44704;SDS011;30431;48.520;9.046;2023-03-21T17:09:22;6.18;;;3.53;;
44704;SDS011;30431;48.520;9.046;2023-03-21T17:11:54;7.38;;;3.63;;
44704;SDS011;30431;48.520;9.046;2023-03-21T17:14:21;5.93;;;3.38;;
44704;SDS011;30431;48.520;9.046;2023-03-21T17:16:51;6.75;;;4.00;;
44704;SDS011;30431;48.520;9.046;2023-03-21T17:19:21;9.48;;;4.85;;
44704;SDS011;30431;48.520;9.046;2023-03-21T17:21:51;11.63;;;3.90;;
44704;SDS011;30431;48.520;9.046;2023-03-21T17:26:46;8.35;;;5.20;;
44704;SDS011;30431;48.520;9.046;2023-03-21T17:29:16;7.10;;;4.60;;
44704;SDS011;30431;48.520;9.046;2023-03-21T17:31:43;6.20;;;3.50;;
44704;SDS011;30431;48.520;9.046;2023-03-21T17:34:13;7.13;;;3.42;;
44704;SDS011;30431;48.520;9.046;2023-03-21T17:36:43;9.70;;;3.08;;
44704;SDS011;30431;48.520;9.046;2023-03-21T17:39:24;6.18;;;3.65;;
44704;SDS011;30431;48.520;9.046;2023-03-21T17:41:53;4.65;;;2.70;;
44704;SDS011;30431;48.520;9.046;2023-03-21T17:44:22;4.45;;;2.22;;
44704;SDS011;30431;48.520;9.046;2023-03-21T17:46:51;6.03;;;2.30;;
44704;SDS011;30431;48.520;9.046;2023-03-21T17:49:18;6.43;;;3.20;;
44704;SDS011;30431;48.520;9.046;2023-03-21T17:51:48;6.07;;;3.22;;
44704;SDS011;30431;48.520;9.046;2023-03-21T17:54:18;4.75;;;2.70;;